Terminal Aerodrome Forecast
Issued by NWS

Home | Current Version | Previous Version | Text Only | Print | Product List | Glossary On
Versions: 1 2 3 4 5 6 7 8 9 10 11 12 13 14 15 16 17 18 19 20 21 22 23 24 25 26 27 28 29 30 31 32 33 34 35 36 37
465
FTUS45 KSLC 210548
TAFENV
TAF
KENV 210548Z 2106/2206 21011G22KT P6SM SCT070 BKN100
     FM210900 14010KT P6SM SCT100
     FM211700 23020G30KT P6SM SCT090 BKN100
     FM220100 29022G35KT P6SM SCT060 BKN100
     FM220300 34009KT P6SM SCT080 BKN120
      AMD LTD TO CLD VIS AND WIND=

USA.gov is the U.S. government's official web portal to all federal, state and local government web resources and services.